Time;durP1;ratioP1;P1;durP2;ratioP2;P2;SDS_P1;SDS_P2;PMS_P1;PMS_P2;Temp;Humidity;BMP_temperature;BMP_pressure;BME280_temperature;BME280_humidity;BME280_pressure;Samples;Min_cycle;Max_cycle;Signal;HPM_P1;HPM_P2
2022/11/15 00:02:06;;;;;;;18.33;13.32;;;;;;;;;;5073826;28;20211;-64
2022/11/15 00:04:34;;;;;;;18.55;14.60;;;;;;;;;;5074475;28;20209;-64
2022/11/15 00:07:02;;;;;;;22.67;14.50;;;;;;;;;;5074306;28;20223;-64
2022/11/15 00:09:29;;;;;;;23.88;15.30;;;;;;;;;;5074294;28;20201;-64
2022/11/15 00:11:56;;;;;;;20.40;13.98;;;;;;;;;;5074063;28;20560;-65
2022/11/15 00:14:23;;;;;;;15.27;12.27;;;;;;;;;;5073829;28;20264;-64
2022/11/15 00:16:50;;;;;;;15.45;13.10;;;;;;;;;;5073676;28;20231;-64
2022/11/15 00:19:17;;;;;;;16.83;12.77;;;;;;;;;;5075046;28;20201;-63
2022/11/15 00:21:45;;;;;;;18.88;12.25;;;;;;;;;;5073689;28;20217;-64
2022/11/15 00:24:13;;;;;;;16.50;12.05;;;;;;;;;;5073188;28;20201;-63
2022/11/15 00:26:40;;;;;;;18.67;12.90;;;;;;;;;;5075855;28;20229;-64
2022/11/15 00:29:07;;;;;;;15.57;12.27;;;;;;;;;;5077120;28;20668;-64
2022/11/15 00:31:34;;;;;;;18.75;12.70;;;;;;;;;;5076886;28;20197;-64
2022/11/15 00:34:01;;;;;;;15.57;12.75;;;;;;;;;;5079669;28;20201;-64
2022/11/15 00:36:28;;;;;;;17.50;13.43;;;;;;;;;;5086001;28;20587;-62
2022/11/15 00:38:57;;;;;;;17.50;14.27;;;;;;;;;;5077863;28;20295;-63
2022/11/15 00:41:24;;;;;;;14.57;11.88;;;;;;;;;;5077733;28;20207;-62
2022/11/15 00:43:51;;;;;;;19.08;11.90;;;;;;;;;;5077812;28;20197;-63
2022/11/15 00:46:18;;;;;;;15.88;12.35;;;;;;;;;;5076713;28;20231;-65
2022/11/15 00:48:45;;;;;;;18.15;13.77;;;;;;;;;;5077166;28;20209;-61
2022/11/15 00:51:12;;;;;;;19.60;13.50;;;;;;;;;;5077056;28;20203;-63
2022/11/15 00:53:39;;;;;;;17.65;13.48;;;;;;;;;;5076490;28;20201;-64
2022/11/15 00:56:08;;;;;;;15.75;12.32;;;;;;;;;;5076786;28;20228;-63
2022/11/15 00:58:35;;;;;;;17.50;12.45;;;;;;;;;;5077004;28;20205;-64
2022/11/15 01:01:07;;;;;;;16.75;12.90;;;;;;;;;;5077718;28;20586;-63
2022/11/15 01:03:34;;;;;;;16.15;12.40;;;;;;;;;;5076663;28;20182;-64
2022/11/15 01:06:02;;;;;;;15.90;11.48;;;;;;;;;;5077061;28;20559;-64
2022/11/15 01:08:29;;;;;;;15.52;11.93;;;;;;;;;;5076740;28;20207;-64
2022/11/15 01:10:56;;;;;;;15.40;12.32;;;;;;;;;;5076795;28;20201;-64
2022/11/15 01:13:24;;;;;;;16.50;13.77;;;;;;;;;;5077456;28;20201;-63
2022/11/15 01:15:51;;;;;;;14.73;11.80;;;;;;;;;;5076234;28;20362;-64
2022/11/15 01:18:19;;;;;;;14.43;11.40;;;;;;;;;;5076333;28;20208;-64
2022/11/15 01:20:46;;;;;;;17.40;12.15;;;;;;;;;;5076270;28;20205;-64
2022/11/15 01:23:13;;;;;;;15.32;12.05;;;;;;;;;;5077569;28;20197;-64
2022/11/15 01:25:40;;;;;;;13.40;11.23;;;;;;;;;;5076590;28;20235;-64
2022/11/15 01:28:07;;;;;;;17.98;11.82;;;;;;;;;;5076281;28;20191;-63
2022/11/15 01:30:37;;;;;;;13.93;11.00;;;;;;;;;;5076246;28;20201;-64
2022/11/15 01:33:04;;;;;;;15.80;11.20;;;;;;;;;;5076546;28;20205;-62
2022/11/15 01:35:31;;;;;;;13.73;12.00;;;;;;;;;;5076780;28;20242;-63
2022/11/15 01:37:58;;;;;;;16.05;10.70;;;;;;;;;;5075910;28;20227;-64
2022/11/15 01:40:25;;;;;;;14.18;11.15;;;;;;;;;;5077121;28;20216;-64
2022/11/15 01:42:52;;;;;;;15.95;10.45;;;;;;;;;;5076879;28;20212;-64
2022/11/15 01:45:19;;;;;;;12.95;10.95;;;;;;;;;;5077237;28;20201;-63
2022/11/15 01:47:49;;;;;;;13.68;11.00;;;;;;;;;;5078387;28;20207;-63
2022/11/15 01:50:18;;;;;;;12.40;10.05;;;;;;;;;;5078653;28;20288;-64
2022/11/15 01:52:45;;;;;;;14.60;11.55;;;;;;;;;;5077547;28;20213;-64
2022/11/15 01:55:16;;;;;;;12.23;10.13;;;;;;;;;;5075935;28;20575;-64
2022/11/15 01:57:44;;;;;;;13.07;10.27;;;;;;;;;;5075611;28;20204;-63
2022/11/15 02:00:12;;;;;;;15.73;11.60;;;;;;;;;;5075659;28;20201;-63
2022/11/15 02:02:39;;;;;;;14.65;10.40;;;;;;;;;;5075706;28;20197;-63
2022/11/15 02:05:08;;;;;;;13.60;11.23;;;;;;;;;;5075357;28;20270;-64
2022/11/15 02:07:36;;;;;;;14.88;10.75;;;;;;;;;;5075265;28;20613;-63
2022/11/15 02:10:06;;;;;;;12.60;10.32;;;;;;;;;;5075386;28;20207;-63
2022/11/15 02:12:33;;;;;;;16.17;11.40;;;;;;;;;;5075392;28;20203;-63
2022/11/15 02:15:00;;;;;;;14.38;11.02;;;;;;;;;;5075374;28;20227;-63
2022/11/15 02:17:33;;;;;;;14.05;10.65;;;;;;;;;;5075447;28;20210;-63
2022/11/15 02:20:22;;;;;;;15.20;11.23;;;;;;;;;;5075834;28;20186;-64
2022/11/15 02:22:59;;;;;;;13.38;10.85;;;;;;;;;;5075703;28;20539;-63
2022/11/15 02:25:37;;;;;;;13.93;11.20;;;;;;;;;;5075067;28;20224;-64
2022/11/15 02:28:12;;;;;;;11.85;10.27;;;;;;;;;;5076721;28;20280;-63
2022/11/15 02:30:43;;;;;;;13.23;10.32;;;;;;;;;;5075127;28;20184;-63
2022/11/15 02:33:14;;;;;;;14.30;10.70;;;;;;;;;;5075454;28;20185;-63
2022/11/15 02:35:45;;;;;;;15.70;10.50;;;;;;;;;;5075092;28;20221;-63
2022/11/15 02:38:18;;;;;;;15.10;10.00;;;;;;;;;;5074899;28;20185;-63
2022/11/15 02:40:49;;;;;;;11.65;9.77;;;;;;;;;;5074954;28;20616;-63
2022/11/15 02:46:08;;;;;;;13.30;9.23;;;;;;;;;;5074224;28;20343;-63
2022/11/15 02:48:36;;;;;;;13.45;11.27;;;;;;;;;;5074774;28;20207;-63
2022/11/15 02:51:03;;;;;;;10.88;9.15;;;;;;;;;;5073793;28;20672;-64
2022/11/15 02:53:31;;;;;;;13.63;10.23;;;;;;;;;;5073990;28;20695;-63
2022/11/15 02:55:58;;;;;;;11.75;10.13;;;;;;;;;;5074135;28;20229;-63
2022/11/15 02:58:34;;;;;;;12.05;9.07;;;;;;;;;;5074846;28;20205;-63
2022/11/15 03:01:05;;;;;;;14.60;10.68;;;;;;;;;;5074454;28;20188;-62
2022/11/15 03:03:40;;;;;;;11.55;8.63;;;;;;;;;;5074392;28;20190;-63
2022/11/15 03:06:12;;;;;;;12.45;8.95;;;;;;;;;;5074006;28;20226;-63
2022/11/15 03:08:44;;;;;;;13.50;9.88;;;;;;;;;;5074093;28;20189;-63
2022/11/15 03:11:13;;;;;;;12.18;9.77;;;;;;;;;;5073696;28;20221;-63
2022/11/15 03:13:47;;;;;;;12.52;9.30;;;;;;;;;;5073858;28;20197;-63
2022/11/15 03:16:17;;;;;;;9.38;8.48;;;;;;;;;;5073563;28;20703;-63
2022/11/15 03:18:49;;;;;;;12.43;8.93;;;;;;;;;;5074074;28;20197;-63
2022/11/15 03:21:18;;;;;;;9.70;8.63;;;;;;;;;;5073809;28;20195;-63
2022/11/15 03:23:46;;;;;;;10.77;8.90;;;;;;;;;;5073463;28;20196;-63
2022/11/15 03:26:15;;;;;;;10.75;7.90;;;;;;;;;;5073243;28;20720;-63
2022/11/15 03:28:44;;;;;;;9.77;8.77;;;;;;;;;;5073864;28;20207;-63
2022/11/15 03:33:57;;;;;;;10.52;8.73;;;;;;;;;;5073164;28;20193;-63
2022/11/15 03:36:26;;;;;;;9.80;8.00;;;;;;;;;;5073550;28;20229;-63
2022/11/15 03:38:55;;;;;;;9.70;7.95;;;;;;;;;;5073726;28;20197;-64
2022/11/15 03:41:25;;;;;;;12.40;8.43;;;;;;;;;;5073525;28;20208;-63
2022/11/15 03:43:57;;;;;;;9.85;8.00;;;;;;;;;;5073448;28;20220;-64
2022/11/15 03:46:27;;;;;;;9.40;7.25;;;;;;;;;;5073564;28;20223;-63
2022/11/15 03:48:58;;;;;;;9.48;7.55;;;;;;;;;;5073552;28;20201;-64
2022/11/15 03:51:25;;;;;;;8.10;7.30;;;;;;;;;;5073345;28;20655;-63
2022/11/15 03:53:52;;;;;;;8.02;7.25;;;;;;;;;;5073400;28;20227;-64
2022/11/15 03:56:20;;;;;;;9.45;6.93;;;;;;;;;;5072944;28;20696;-64
2022/11/15 03:58:47;;;;;;;13.32;9.65;;;;;;;;;;5073386;28;20209;-64
2022/11/15 04:01:14;;;;;;;7.10;6.28;;;;;;;;;;5072819;28;20201;-65
2022/11/15 04:03:41;;;;;;;7.88;7.07;;;;;;;;;;5073109;28;20196;-63
2022/11/15 04:06:09;;;;;;;13.27;7.50;;;;;;;;;;5073480;28;20213;-63
2022/11/15 04:10:34;;;;;;;9.43;7.38;;;;;;;;;;5092054;28;20969;-64
2022/11/15 04:13:01;;;;;;;8.25;6.78;;;;;;;;;;5092147;28;20196;-64
2022/11/15 04:15:28;;;;;;;9.85;7.75;;;;;;;;;;5092001;28;20221;-64
2022/11/15 04:17:56;;;;;;;11.07;6.70;;;;;;;;;;5097254;28;20378;-64
2022/11/15 04:25:51;;;;;;;10.27;7.30;;;;;;;;;;5049185;28;20222;-60
2022/11/15 04:28:18;;;;;;;7.97;5.43;;;;;;;;;;5050101;28;20330;-60
2022/11/15 04:30:45;;;;;;;7.72;6.22;;;;;;;;;;5051048;28;20275;-60
2022/11/15 04:33:12;;;;;;;6.38;5.78;;;;;;;;;;5051889;28;20211;-61
2022/11/15 04:35:40;;;;;;;9.13;6.68;;;;;;;;;;5051506;28;20678;-60
2022/11/15 04:38:07;;;;;;;6.32;5.28;;;;;;;;;;5050998;28;20202;-61
2022/11/15 04:40:34;;;;;;;7.90;6.43;;;;;;;;;;5049827;28;20662;-61
2022/11/15 04:43:02;;;;;;;10.32;5.88;;;;;;;;;;5050000;28;20208;-61
2022/11/15 04:45:29;;;;;;;6.03;5.00;;;;;;;;;;5049863;28;20222;-61
2022/11/15 04:47:57;;;;;;;6.63;5.90;;;;;;;;;;5049810;28;20213;-59
2022/11/15 04:50:24;;;;;;;5.95;4.97;;;;;;;;;;5049671;28;20226;-59
2022/11/15 04:52:52;;;;;;;6.50;5.60;;;;;;;;;;5049562;28;20682;-61
2022/11/15 04:55:19;;;;;;;8.05;5.85;;;;;;;;;;5049300;28;20772;-60
2022/11/15 04:57:46;;;;;;;7.20;6.13;;;;;;;;;;5049736;28;20232;-60
2022/11/15 05:00:17;;;;;;;7.35;5.53;;;;;;;;;;5049231;28;20692;-59
2022/11/15 05:05:29;;;;;;;7.47;5.60;;;;;;;;;;5049247;28;20218;-60
2022/11/15 05:07:56;;;;;;;6.18;5.10;;;;;;;;;;5049273;28;20662;-58
2022/11/15 05:10:23;;;;;;;7.22;5.57;;;;;;;;;;5049061;28;20637;-59
2022/11/15 05:12:50;;;;;;;6.95;5.82;;;;;;;;;;5048873;28;20289;-59
2022/11/15 05:15:19;;;;;;;6.05;5.15;;;;;;;;;;5049375;28;20217;-60
2022/11/15 05:17:46;;;;;;;8.00;5.28;;;;;;;;;;5049305;28;20202;-61
2022/11/15 05:20:13;;;;;;;6.20;4.82;;;;;;;;;;5045444;28;20230;-60
2022/11/15 05:22:41;;;;;;;5.63;5.03;;;;;;;;;;5035955;28;20603;-60
2022/11/15 05:25:09;;;;;;;6.20;5.10;;;;;;;;;;5035466;28;20487;-60
2022/11/15 05:27:36;;;;;;;7.68;4.85;;;;;;;;;;5035981;28;20445;-59
2022/11/15 05:30:03;;;;;;;7.83;5.90;;;;;;;;;;5035336;28;20222;-60
2022/11/15 05:32:32;;;;;;;8.40;5.80;;;;;;;;;;5035446;28;20449;-61
2022/11/15 05:34:59;;;;;;;7.07;5.20;;;;;;;;;;5035363;28;21000;-60
2022/11/15 05:37:26;;;;;;;5.97;5.37;;;;;;;;;;5034935;28;20449;-60
2022/11/15 05:39:53;;;;;;;7.80;5.73;;;;;;;;;;5035411;28;20441;-59
2022/11/15 05:42:20;;;;;;;8.13;5.53;;;;;;;;;;5035272;28;20455;-63
2022/11/15 05:44:49;;;;;;;9.67;5.77;;;;;;;;;;5035215;28;20518;-60
2022/11/15 05:47:18;;;;;;;7.37;6.37;;;;;;;;;;5033978;28;20452;-60
2022/11/15 05:49:48;;;;;;;7.73;5.53;;;;;;;;;;5035268;28;20477;-59
2022/11/15 05:52:16;;;;;;;8.03;5.20;;;;;;;;;;5035453;28;20818;-59
2022/11/15 05:54:44;;;;;;;6.80;5.50;;;;;;;;;;5035109;28;20480;-60
2022/11/15 05:57:11;;;;;;;7.47;6.10;;;;;;;;;;5034214;28;20445;-60
2022/11/15 05:59:40;;;;;;;6.17;5.57;;;;;;;;;;5034856;28;20997;-61
2022/11/15 06:02:07;;;;;;;6.20;5.60;;;;;;;;;;5035480;28;20515;-60
2022/11/15 06:04:34;;;;;;;6.33;5.73;;;;;;;;;;5015979;28;20834;-61
2022/11/15 06:07:03;;;;;;;6.13;5.63;;;;;;;;;;5034761;28;20449;-60
2022/11/15 06:09:30;;;;;;;5.47;4.97;;;;;;;;;;5034274;28;20479;-60
2022/11/15 06:11:57;;;;;;;8.93;5.77;;;;;;;;;;5035042;28;20456;-60
2022/11/15 06:14:24;;;;;;;5.83;5.20;;;;;;;;;;5034323;28;20464;-61
2022/11/15 06:16:51;;;;;;;6.77;6.10;;;;;;;;;;5017547;28;20514;-59
2022/11/15 06:19:18;;;;;;;8.90;6.40;;;;;;;;;;5028074;28;20510;-59
2022/11/15 06:21:45;;;;;;;6.70;6.00;;;;;;;;;;5035067;28;20945;-60
2022/11/15 06:24:14;;;;;;;7.05;6.35;;;;;;;;;;5031315;28;20477;-59
2022/11/15 06:26:41;;;;;;;7.10;6.40;;;;;;;;;;5034353;28;20285;-58
2022/11/15 06:29:08;;;;;;;11.93;7.73;;;;;;;;;;5034338;28;20477;-58
2022/11/15 06:31:35;;;;;;;7.23;6.00;;;;;;;;;;5034134;28;20537;-58
2022/11/15 06:34:03;;;;;;;7.57;6.47;;;;;;;;;;5034306;28;20837;-58
2022/11/15 06:36:30;;;;;;;6.37;5.70;;;;;;;;;;5034748;28;20503;-58
2022/11/15 06:38:58;;;;;;;8.47;5.40;;;;;;;;;;5035084;28;20523;-57
2022/11/15 06:41:26;;;;;;;8.73;6.97;;;;;;;;;;5034449;28;20441;-58
2022/11/15 06:43:53;;;;;;;8.17;7.33;;;;;;;;;;5034549;28;20491;-57
2022/11/15 06:46:20;;;;;;;10.03;6.00;;;;;;;;;;5034158;28;20524;-58
2022/11/15 06:48:49;;;;;;;6.17;5.57;;;;;;;;;;5034607;28;20527;-58
2022/11/15 06:51:16;;;;;;;8.13;5.90;;;;;;;;;;5034550;28;20453;-59
2022/11/15 06:53:43;;;;;;;7.47;6.60;;;;;;;;;;5034118;28;20476;-59
2022/11/15 06:56:10;;;;;;;6.70;6.00;;;;;;;;;;5034601;28;20445;-58
2022/11/15 06:58:38;;;;;;;6.23;5.63;;;;;;;;;;5034346;28;20451;-58
2022/11/15 07:01:07;;;;;;;10.07;6.17;;;;;;;;;;5034937;28;20509;-58
2022/11/15 07:03:35;;;;;;;6.70;6.10;;;;;;;;;;5034628;28;20473;-59
2022/11/15 07:06:03;;;;;;;9.67;6.47;;;;;;;;;;5034157;28;20453;-59
2022/11/15 07:08:30;;;;;;;9.63;6.63;;;;;;;;;;5034156;28;20500;-58
2022/11/15 07:11:00;;;;;;;10.63;7.00;;;;;;;;;;5034105;28;20484;-59
2022/11/15 07:13:27;;;;;;;11.00;6.50;;;;;;;;;;5033381;28;20449;-56
2022/11/15 07:15:56;;;;;;;9.63;6.80;;;;;;;;;;5036712;28;20449;-58
2022/11/15 07:18:23;;;;;;;8.63;7.53;;;;;;;;;;5033679;28;20532;-60
2022/11/15 07:20:50;;;;;;;7.40;5.53;;;;;;;;;;5033719;28;20524;-59
2022/11/15 07:23:17;;;;;;;9.57;6.57;;;;;;;;;;5034436;28;20808;-58
2022/11/15 07:25:44;;;;;;;7.13;6.43;;;;;;;;;;5037087;28;20492;-59
2022/11/15 07:28:11;;;;;;;9.00;5.67;;;;;;;;;;5033776;28;20206;-58
2022/11/15 07:30:39;;;;;;;7.20;6.37;;;;;;;;;;5038546;28;20592;-58
2022/11/15 07:33:07;;;;;;;13.70;6.77;;;;;;;;;;5035361;28;20876;-58
2022/11/15 07:35:34;;;;;;;7.05;6.25;;;;;;;;;;5034906;28;20462;-58
2022/11/15 07:38:02;;;;;;;6.95;6.25;;;;;;;;;;5035488;28;20270;-58
2022/11/15 07:40:31;;;;;;;13.30;6.70;;;;;;;;;;5037462;28;20619;-58
2022/11/15 07:43:00;;;;;;;10.33;6.53;;;;;;;;;;5036629;28;20514;-58
2022/11/15 07:45:27;;;;;;;7.07;6.37;;;;;;;;;;5036188;28;20461;-56
2022/11/15 07:47:55;;;;;;;7.17;6.40;;;;;;;;;;5036007;28;20553;-57
2022/11/15 07:50:24;;;;;;;10.27;6.00;;;;;;;;;;5037824;28;20858;-58
2022/11/15 07:52:55;;;;;;;9.33;5.50;;;;;;;;;;5038301;28;20445;-59
2022/11/15 07:55:22;;;;;;;9.73;6.00;;;;;;;;;;5036229;28;20496;-56
2022/11/15 07:57:49;;;;;;;5.80;5.10;;;;;;;;;;5033249;28;20528;-59
2022/11/15 08:00:17;;;;;;;5.23;4.80;;;;;;;;;;5033849;28;20955;-58
2022/11/15 08:02:44;;;;;;;6.23;5.23;;;;;;;;;;5033766;28;20479;-59
2022/11/15 08:05:11;;;;;;;8.10;5.70;;;;;;;;;;5033075;28;20475;-59
2022/11/15 08:07:40;;;;;;;7.37;5.77;;;;;;;;;;5033004;28;20457;-59
2022/11/15 08:10:07;;;;;;;8.17;5.40;;;;;;;;;;5032770;28;20480;-58
2022/11/15 08:12:35;;;;;;;5.70;5.00;;;;;;;;;;5036311;28;20456;-59
2022/11/15 08:15:02;;;;;;;6.60;5.30;;;;;;;;;;5036309;28;20557;-58
2022/11/15 08:17:32;;;;;;;9.07;5.20;;;;;;;;;;5034808;28;20496;-58
2022/11/15 08:19:59;;;;;;;7.90;5.10;;;;;;;;;;5034594;28;20445;-58
2022/11/15 08:22:27;;;;;;;7.27;5.80;;;;;;;;;;5033610;28;20477;-58
2022/11/15 08:24:55;;;;;;;7.13;5.20;;;;;;;;;;5033000;28;20893;-59
2022/11/15 08:27:22;;;;;;;5.87;5.00;;;;;;;;;;5033397;28;20467;-59
2022/11/15 08:29:50;;;;;;;6.23;4.93;;;;;;;;;;5032856;28;20481;-59
2022/11/15 08:32:17;;;;;;;6.90;5.23;;;;;;;;;;5032913;28;20571;-62
2022/11/15 08:35:09;;;;;;;5.37;4.87;;;;;;;;;;5036317;28;20481;-59
2022/11/15 08:37:36;;;;;;;5.23;4.20;;;;;;;;;;5033453;28;20456;-58
2022/11/15 08:40:05;;;;;;;6.97;4.60;;;;;;;;;;5034151;28;20433;-57
2022/11/15 08:42:33;;;;;;;5.80;5.13;;;;;;;;;;5034680;28;20531;-57
2022/11/15 08:45:00;;;;;;;6.00;4.93;;;;;;;;;;5034524;28;20469;-58
2022/11/15 08:47:27;;;;;;;5.87;4.37;;;;;;;;;;5034746;28;20445;-58
2022/11/15 08:49:54;;;;;;;6.67;4.60;;;;;;;;;;5034693;28;20991;-58
2022/11/15 08:52:22;;;;;;;10.57;4.93;;;;;;;;;;5033482;28;20453;-57
2022/11/15 08:54:49;;;;;;;8.00;4.00;;;;;;;;;;5033102;28;21005;-58
2022/11/15 08:57:17;;;;;;;6.63;4.93;;;;;;;;;;5035850;28;20453;-58
2022/11/15 08:59:45;;;;;;;5.97;4.63;;;;;;;;;;5036301;28;20949;-58
2022/11/15 09:02:14;;;;;;;8.40;4.20;;;;;;;;;;5036485;28;20541;-57
2022/11/15 09:04:42;;;;;;;4.27;3.70;;;;;;;;;;5036422;28;21014;-57
2022/11/15 09:07:09;;;;;;;4.53;4.00;;;;;;;;;;5035592;28;20502;-58
2022/11/15 09:09:36;;;;;;;8.03;4.47;;;;;;;;;;5035993;28;20484;-57
2022/11/15 09:12:03;;;;;;;8.40;4.27;;;;;;;;;;5035682;28;20957;-57
2022/11/15 09:14:32;;;;;;;6.03;4.07;;;;;;;;;;5036328;28;20504;-58
2022/11/15 09:16:59;;;;;;;5.53;4.23;;;;;;;;;;5036640;28;20476;-58
2022/11/15 09:19:26;;;;;;;6.67;4.57;;;;;;;;;;5036633;28;20470;-58
2022/11/15 09:21:54;;;;;;;5.60;4.17;;;;;;;;;;5035888;28;20440;-58
2022/11/15 09:24:21;;;;;;;4.03;3.50;;;;;;;;;;5035797;28;20567;-58
2022/11/15 09:26:48;;;;;;;6.00;4.17;;;;;;;;;;5035638;28;20944;-57
2022/11/15 09:29:15;;;;;;;6.17;4.00;;;;;;;;;;5036234;28;20884;-58
2022/11/15 09:31:44;;;;;;;4.87;4.20;;;;;;;;;;5035700;28;20507;-57
2022/11/15 09:34:11;;;;;;;4.90;4.10;;;;;;;;;;5036638;28;20465;-58
2022/11/15 09:36:38;;;;;;;4.07;3.67;;;;;;;;;;5036026;28;20506;-57
2022/11/15 09:39:05;;;;;;;3.87;3.57;;;;;;;;;;5035377;28;20893;-58
2022/11/15 09:41:47;;;;;;;3.30;3.00;;;;;;;;;;5036153;28;20443;-57
2022/11/15 09:44:28;;;;;;;4.83;4.10;;;;;;;;;;5032708;28;20552;-58
2022/11/15 09:47:01;;;;;;;4.70;3.70;;;;;;;;;;5035018;28;20426;-58
2022/11/15 09:49:30;;;;;;;8.50;3.87;;;;;;;;;;5034946;28;20428;-58
2022/11/15 09:51:57;;;;;;;5.23;3.67;;;;;;;;;;5035085;28;20485;-58
2022/11/15 09:54:30;;;;;;;5.53;3.70;;;;;;;;;;5035048;28;20927;-58
2022/11/15 09:56:57;;;;;;;7.30;4.33;;;;;;;;;;5036007;28;20489;-58
2022/11/15 09:59:31;;;;;;;3.80;3.40;;;;;;;;;;5035404;28;20450;-58
2022/11/15 10:02:03;;;;;;;4.57;4.17;;;;;;;;;;5035397;28;20433;-58
2022/11/15 10:04:31;;;;;;;5.43;3.90;;;;;;;;;;5034932;28;20564;-59
2022/11/15 10:07:02;;;;;;;4.87;3.57;;;;;;;;;;5035065;28;20787;-58
2022/11/15 10:09:31;;;;;;;5.93;4.30;;;;;;;;;;5034954;28;20491;-58
2022/11/15 10:11:59;;;;;;;5.10;4.40;;;;;;;;;;5034824;28;20520;-58
2022/11/15 10:14:28;;;;;;;3.77;3.37;;;;;;;;;;5034658;28;20465;-59
2022/11/15 10:17:08;;;;;;;4.30;3.90;;;;;;;;;;5034998;28;20457;-57
2022/11/15 10:19:39;;;;;;;5.97;4.40;;;;;;;;;;5034861;28;20855;-60
2022/11/15 10:22:14;;;;;;;4.87;3.77;;;;;;;;;;5034879;28;20441;-58
2022/11/15 10:24:44;;;;;;;4.67;4.10;;;;;;;;;;5064908;23;20491;-64
2022/11/15 10:27:12;;;;;;;5.37;3.90;;;;;;;;;;5055037;28;20956;-63
2022/11/15 10:29:44;;;;;;;4.50;3.90;;;;;;;;;;5054780;28;20520;-64
2022/11/15 10:32:13;;;;;;;4.30;3.73;;;;;;;;;;5055078;28;20479;-63
2022/11/15 10:34:40;;;;;;;4.30;3.50;;;;;;;;;;5066095;28;20469;-64
2022/11/15 10:37:07;;;;;;;3.77;3.47;;;;;;;;;;5087419;28;20443;-64
2022/11/15 10:39:34;;;;;;;4.87;3.33;;;;;;;;;;5078149;28;20451;-64
2022/11/15 10:42:16;;;;;;;4.40;3.33;;;;;;;;;;5076356;28;20436;-64
2022/11/15 10:44:44;;;;;;;3.80;3.00;;;;;;;;;;5076337;28;20463;-64
2022/11/15 10:47:27;;;;;;;3.97;3.57;;;;;;;;;;5076445;28;20449;-63
2022/11/15 10:49:55;;;;;;;4.20;3.00;;;;;;;;;;5075399;28;20904;-63
2022/11/15 10:52:24;;;;;;;12.47;4.57;;;;;;;;;;5074346;28;20443;-64
2022/11/15 10:54:52;;;;;;;3.97;3.27;;;;;;;;;;5074138;28;20788;-64
2022/11/15 10:57:21;;;;;;;4.53;3.40;;;;;;;;;;5074643;28;20446;-64
2022/11/15 10:59:49;;;;;;;3.30;3.00;;;;;;;;;;5074208;28;20447;-63
2022/11/15 11:02:28;;;;;;;6.70;3.60;;;;;;;;;;5074869;28;20803;-64
2022/11/15 11:04:55;;;;;;;5.07;3.73;;;;;;;;;;5074408;28;20450;-65
2022/11/15 11:07:23;;;;;;;3.90;3.10;;;;;;;;;;5074449;28;20439;-64
2022/11/15 11:09:58;;;;;;;6.23;3.27;;;;;;;;;;5074057;28;20443;-64
2022/11/15 11:12:28;;;;;;;3.50;2.90;;;;;;;;;;5074037;28;20477;-65
2022/11/15 11:14:55;;;;;;;4.60;3.70;;;;;;;;;;5074322;28;21017;-65
2022/11/15 11:17:26;;;;;;;3.83;3.50;;;;;;;;;;5074552;28;20439;-64
2022/11/15 11:19:59;;;;;;;6.13;4.20;;;;;;;;;;5074016;28;20472;-63
2022/11/15 11:22:32;;;;;;;5.33;4.83;;;;;;;;;;5074459;28;20438;-63
2022/11/15 11:25:17;;;;;;;3.73;3.37;;;;;;;;;;5073845;28;20963;-63
2022/11/15 11:27:45;;;;;;;5.30;4.57;;;;;;;;;;5073973;28;20442;-63
2022/11/15 11:30:17;;;;;;;4.67;3.80;;;;;;;;;;5073721;28;20446;-64
2022/11/15 11:32:51;;;;;;;4.93;3.40;;;;;;;;;;5073436;28;20478;-64
2022/11/15 11:35:22;;;;;;;4.83;3.47;;;;;;;;;;5073602;28;20987;-63
2022/11/15 11:37:50;;;;;;;3.60;2.90;;;;;;;;;;5081820;28;20491;-64
2022/11/15 11:40:22;;;;;;;4.30;3.90;;;;;;;;;;5085005;28;20465;-64
2022/11/15 11:42:58;;;;;;;4.50;3.70;;;;;;;;;;5074053;28;20458;-65
2022/11/15 11:45:29;;;;;;;5.03;2.80;;;;;;;;;;5074279;28;20467;-64
2022/11/15 11:47:59;;;;;;;3.27;2.90;;;;;;;;;;5074633;28;20428;-64
2022/11/15 11:50:28;;;;;;;4.30;2.60;;;;;;;;;;5075340;28;20447;-64
2022/11/15 11:52:58;;;;;;;3.37;3.07;;;;;;;;;;5073942;28;20451;-64
2022/11/15 11:55:27;;;;;;;4.10;2.97;;;;;;;;;;5074053;28;20475;-64
2022/11/15 11:58:05;;;;;;;3.60;3.30;;;;;;;;;;5074874;28;20445;-63
2022/11/15 12:00:35;;;;;;;4.50;3.40;;;;;;;;;;5074139;28;20441;-63
2022/11/15 12:03:06;;;;;;;3.53;3.20;;;;;;;;;;5074212;28;20443;-65
2022/11/15 12:05:37;;;;;;;3.50;3.07;;;;;;;;;;5073573;28;20949;-63
2022/11/15 12:08:06;;;;;;;5.00;3.50;;;;;;;;;;5073182;28;20432;-64
2022/11/15 12:10:35;;;;;;;6.37;4.10;;;;;;;;;;5074059;28;20469;-66
2022/11/15 12:13:04;;;;;;;6.17;3.50;;;;;;;;;;5074022;28;20475;-62
2022/11/15 12:15:33;;;;;;;4.60;3.33;;;;;;;;;;5074168;28;20467;-63
2022/11/15 12:18:01;;;;;;;4.07;3.47;;;;;;;;;;5074294;28;20454;-64
2022/11/15 12:20:30;;;;;;;5.20;4.00;;;;;;;;;;5073683;28;20451;-64
2022/11/15 12:23:01;;;;;;;4.33;3.93;;;;;;;;;;5074335;28;20970;-63
2022/11/15 12:25:31;;;;;;;5.20;3.57;;;;;;;;;;5079387;28;20532;-64
2022/11/15 12:28:01;;;;;;;4.40;3.40;;;;;;;;;;5079175;28;20444;-64
2022/11/15 12:30:33;;;;;;;4.00;3.60;;;;;;;;;;5078539;28;20447;-63
2022/11/15 12:33:00;;;;;;;4.20;3.20;;;;;;;;;;5080317;28;20468;-62
2022/11/15 12:35:34;;;;;;;5.17;3.43;;;;;;;;;;5081117;28;20467;-63
2022/11/15 12:38:02;;;;;;;3.63;2.90;;;;;;;;;;5079641;28;20451;-64
2022/11/15 12:40:34;;;;;;;4.77;3.50;;;;;;;;;;5080347;28;20450;-62
2022/11/15 12:43:03;;;;;;;4.80;3.10;;;;;;;;;;5077969;28;20431;-63
2022/11/15 12:45:31;;;;;;;5.03;3.53;;;;;;;;;;5077878;28;20459;-63
2022/11/15 12:48:23;;;;;;;4.03;3.63;;;;;;;;;;5078118;28;20453;-64
2022/11/15 12:50:57;;;;;;;5.47;3.23;;;;;;;;;;5079295;28;20487;-64
2022/11/15 12:53:29;;;;;;;5.60;4.00;;;;;;;;;;5078457;28;20537;-65
2022/11/15 12:56:20;;;;;;;5.10;3.37;;;;;;;;;;5078782;28;20459;-63
2022/11/15 12:58:48;;;;;;;4.97;3.50;;;;;;;;;;5077775;28;20435;-64
2022/11/15 13:01:30;;;;;;;6.10;3.77;;;;;;;;;;5077606;28;20450;-63
2022/11/15 13:04:10;;;;;;;6.70;3.23;;;;;;;;;;5076882;28;20465;-63
2022/11/15 13:06:42;;;;;;;4.43;3.53;;;;;;;;;;5076579;28;20439;-64
2022/11/15 13:09:24;;;;;;;5.63;3.60;;;;;;;;;;5077964;28;20446;-63
2022/11/15 13:11:55;;;;;;;3.90;3.60;;;;;;;;;;5076784;28;20993;-63
2022/11/15 13:14:41;;;;;;;5.83;3.47;;;;;;;;;;5076606;28;20550;-63
2022/11/15 13:17:35;;;;;;;4.57;3.50;;;;;;;;;;5076953;28;20457;-63
2022/11/15 13:20:17;;;;;;;3.73;3.20;;;;;;;;;;5076506;28;20427;-63
2022/11/15 13:22:51;;;;;;;5.70;3.27;;;;;;;;;;5073846;28;20820;-63
2022/11/15 13:25:21;;;;;;;7.00;3.83;;;;;;;;;;5075855;28;21020;-66
2022/11/15 13:27:50;;;;;;;3.90;3.50;;;;;;;;;;5076015;28;20442;-63
2022/11/15 13:30:20;;;;;;;3.83;3.47;;;;;;;;;;5075556;28;20439;-63
2022/11/15 13:32:47;;;;;;;5.50;3.77;;;;;;;;;;5076191;28;20489;-64
2022/11/15 13:35:19;;;;;;;5.40;4.33;;;;;;;;;;5076249;28;20975;-64
2022/11/15 13:37:46;;;;;;;4.23;3.57;;;;;;;;;;5075802;28;20431;-64
2022/11/15 13:40:27;;;;;;;5.90;4.07;;;;;;;;;;5076111;28;20439;-63
2022/11/15 13:42:55;;;;;;;6.40;4.63;;;;;;;;;;5075810;28;20427;-62
2022/11/15 13:45:22;;;;;;;6.20;3.60;;;;;;;;;;5075866;28;20471;-65
2022/11/15 13:47:53;;;;;;;4.33;3.93;;;;;;;;;;5075981;28;20959;-63
2022/11/15 13:50:22;;;;;;;5.00;3.67;;;;;;;;;;5076528;28;20447;-63
2022/11/15 13:52:49;;;;;;;4.27;3.77;;;;;;;;;;5075977;28;20467;-63
2022/11/15 13:55:19;;;;;;;5.17;4.03;;;;;;;;;;5076286;28;20478;-64
2022/11/15 13:57:47;;;;;;;3.40;3.10;;;;;;;;;;5076058;28;20454;-64
2022/11/15 14:00:34;;;;;;;4.07;3.67;;;;;;;;;;5076231;28;20453;-63
2022/11/15 14:03:07;;;;;;;4.30;3.77;;;;;;;;;;5075374;28;20465;-64
2022/11/15 14:05:34;;;;;;;5.17;3.70;;;;;;;;;;5075908;28;20474;-64
2022/11/15 14:08:03;;;;;;;8.67;3.80;;;;;;;;;;5077370;28;20440;-63
2022/11/15 14:10:31;;;;;;;4.90;4.30;;;;;;;;;;5076480;28;20439;-64
2022/11/15 14:12:58;;;;;;;4.63;3.40;;;;;;;;;;5075169;28;20962;-63
2022/11/15 14:15:29;;;;;;;4.27;3.90;;;;;;;;;;5075420;28;20469;-64
2022/11/15 14:17:56;;;;;;;3.07;2.70;;;;;;;;;;5075544;28;20434;-63
2022/11/15 14:20:28;;;;;;;6.57;3.40;;;;;;;;;;5075955;28;20447;-63
2022/11/15 14:22:56;;;;;;;3.70;3.33;;;;;;;;;;5075944;28;20448;-63
2022/11/15 14:25:23;;;;;;;5.10;3.20;;;;;;;;;;5075210;28;20481;-62
2022/11/15 14:28:05;;;;;;;3.03;2.63;;;;;;;;;;5075472;28;20817;-64
2022/11/15 14:30:34;;;;;;;3.33;3.03;;;;;;;;;;5074890;28;20455;-63
2022/11/15 14:33:01;;;;;;;5.20;3.57;;;;;;;;;;5074696;28;20489;-64
2022/11/15 14:35:28;;;;;;;9.90;3.67;;;;;;;;;;5076938;28;20467;-62
2022/11/15 14:37:55;;;;;;;6.73;3.60;;;;;;;;;;5077519;28;20447;-63
2022/11/15 14:40:23;;;;;;;6.33;3.70;;;;;;;;;;5078232;28;20947;-63
2022/11/15 14:42:51;;;;;;;3.80;3.50;;;;;;;;;;5079527;28;20442;-64
2022/11/15 14:45:19;;;;;;;4.57;3.73;;;;;;;;;;5077816;28;20467;-64
2022/11/15 14:47:48;;;;;;;4.00;3.60;;;;;;;;;;5078121;28;20496;-63
2022/11/15 14:50:16;;;;;;;3.90;2.90;;;;;;;;;;5077199;28;20443;-63
2022/11/15 14:52:43;;;;;;;3.03;2.73;;;;;;;;;;5075897;28;20854;-63
2022/11/15 14:55:15;;;;;;;4.83;3.80;;;;;;;;;;5076055;28;20502;-63
2022/11/15 14:57:42;;;;;;;4.27;3.70;;;;;;;;;;5078060;28;20434;-62
2022/11/15 15:00:10;;;;;;;3.97;3.37;;;;;;;;;;5077373;28;20458;-63
2022/11/15 15:02:37;;;;;;;3.80;3.37;;;;;;;;;;5076299;28;20439;-62
2022/11/15 15:05:14;;;;;;;3.73;3.43;;;;;;;;;;5074204;28;21042;-63